Warning: Javascript must be enabled to use all the features on this page!


Page Loading - Please Wait...

Click to hideNews Bulletins

Peak Streamflow for the Nation

USGS 02457595 FIVEMILE CREEK NEAR REPUBLIC, AL

Jefferson County, Alabama
Hydrologic Unit Code 03160111
Latitude  33°35'49", Longitude  86°52'05" NAD27
Drainage area 51.9  square miles
Output formats
Table
Graph
Tab-separated file
peakfq (watstore) format
Reselect output format
Water
Year
Date Gage
Height
(feet)
Stream-
flow
(cfs)
1989 1989-07-02 9.31 3,900
1990 1990-02-16 12.01 5,860
1991 1991-02-19 8.21 3,300
1992 1992-08-21 12.63 6,410
1993 1993-01-12 10.75 4,870
1994 1994-07-27 9.66 4,120
1995 1994-11-28 7.79 2,920
1996 1996-01-26 15.60 8,990
1997 1997-06-14 9.65 4,120
1998 1998-01-07 14.55 8,060
1999 1999-06-28 10.40 4,630
2000 2000-03-11 18.35 11,300
2001 2001-03-11 18.35 12,600
2002 2002-07-13 13.43 7,330
2003 2003-05-07 25.41 24,200
2004 2004-02-06 18.28 12,600
2005 2004-11-24 12.95 6,950
2006 2006-02-06 10.87 5,110
2007 2007-04-26 4.94 1,310
2008 2008-05-11 8.87 3,610
2009 2009-09-19 11.85 5,950
2010 2010-04-24 10.19 4,560
2011 2011-09-05 16.23 10,200
2012 2012-07-31 10.40 4,730
2013 2013-03-24 9.19 3,830
2014 2014-04-07 15.91 9,910
2015 2015-01-04 9.43 4,000
2016 2015-12-25 16.62 10,700
2017 2017-07-24 12.07 6,140
2018 2017-12-20 10.13 4,510
2019 2019-05-11 12.52 6,550
2020 2020-04-13 13.96 7,960